LIRF/FCO METAR and TAF weather

Enter ICAO airport designator
Station Type Date Time Source
LIRF METAR 2024/04/18 06:50 UTC NOAA

LIRF 180650Z 07004KT 030V110 CAVOK 11/05 Q1007 NOSIG


Station Type Date Time Source
LIRF Decoded METAR 2024/04/18 06:50 UTC NOAA

Roma Fiumicino, Italy (LIRF) 41-48N 012-14E 3M
Apr 18, 2024 - 02:50 AM EDT / 2024.04.18 0650 UTC
Wind: from the ENE (070 degrees) at 5 MPH (4 KT) (direction variable):0
Visibility: greater than 7 mile(s):0
Temperature: 51 F (11 C)
Dew Point: 41 F (5 C)
Relative Humidity: 66%
Pressure (altimeter): 29.74 in. Hg (1007 hPa)
ob: LIRF 180650Z 07004KT 030V110 CAVOK 11/05 Q1007 NOSIG
cycle: 7

Station Type Date Time Source
LIRF TAF 2024/04/18 18:22 UTC NOAA